Terminal Aerodrome Forecast
Issued by NWS Lake Charles, LA

Home | Current Version | Previous Version | Text Only | Print | Product List | Glossary On
Versions: 1 2 3 4 5 6 7 8 9 10 11 12 13 14
000
FTUS44 KLCH 310520
TAFLFT
TAF
KLFT 310520Z 3106/0106 VRB03KT P6SM FEW250
     FM311800 18007KT P6SM VCTS SCT035CB SCT230=

USA.gov is the U.S. government's official web portal to all federal, state and local government web resources and services.